Wetterdaten: Woche 11.04.16 - 17.04.16 (KW15)
Datum Zeit Temp. A. Feuchte A. Luftdruck Regen Wind Richtung Taupunkt Windchill Windben
11.04.2016 00:00 2,9 C 90 % 1011,0 hPa 0,0 l/m 0,0 km/h (0 Bft) SW 1,4 C 2,9 C 0,3 km/h (0 Bft)
11.04.2016 01:00 2,1 C 92 % 1011,4 hPa 0,0 l/m 0,1 km/h (0 Bft) SW 0,9 C 2,1 C 0,5 km/h (0 Bft)
11.04.2016 02:00 1,2 C 93 % 1011,4 hPa 0,0 l/m 0,0 km/h (0 Bft) SW 0,2 C 1,2 C 0,0 km/h (0 Bft)
11.04.2016 03:00 0,7 C 94 % 1011,6 hPa 0,0 l/m 0,0 km/h (0 Bft) SW -0,2 C 0,7 C 0,1 km/h (0 Bft)
11.04.2016 04:00 0,2 C 94 % 1011,7 hPa 0,0 l/m 0,0 km/h (0 Bft) SW -0,7 C 0,2 C 0,1 km/h (0 Bft)
11.04.2016 05:00 -0,3 C 95 % 1011,6 hPa 0,0 l/m 0,0 km/h (0 Bft) SW -1,1 C -0,3 C 0,2 km/h (0 Bft)
11.04.2016 06:00 -0,7 C 94 % 1011,7 hPa 0,0 l/m 0,0 km/h (0 Bft) SW -1,5 C -0,7 C 0,0 km/h (0 Bft)
11.04.2016 07:00 -0,7 C 95 % 1011,9 hPa 0,0 l/m 0,1 km/h (0 Bft) SW -1,3 C -0,7 C 0,9 km/h (0 Bft)
11.04.2016 08:00 3,2 C 89 % 1011,9 hPa 0,0 l/m 0,9 km/h (0 Bft) SW 1,6 C 3,2 C 2,2 km/h (1 Bft)
11.04.2016 09:00 6,9 C 81 % 1011,8 hPa 0,0 l/m 2,2 km/h (1 Bft) SW 3,8 C 6,9 C 3,9 km/h (1 Bft)
11.04.2016 10:00 10,7 C 69 % 1011,7 hPa 0,0 l/m 3,8 km/h (1 Bft) W 5,2 C 10,7 C 9,4 km/h (2 Bft)
11.04.2016 11:00 12,7 C 62 % 1011,4 hPa 0,0 l/m 3,9 km/h (1 Bft) W-NW 5,7 C 12,7 C 8,5 km/h (2 Bft)
11.04.2016 12:00 14,0 C 57 % 1011,1 hPa 0,0 l/m 4,4 km/h (1 Bft) NW 5,7 C 14,0 C 9,1 km/h (2 Bft)
11.04.2016 13:00 15,5 C 51 % 1010,6 hPa 0,0 l/m 3,7 km/h (1 Bft) NW 5,5 C 15,5 C 9,9 km/h (2 Bft)
11.04.2016 14:00 16,7 C 47 % 1010,1 hPa 0,0 l/m 4,1 km/h (1 Bft) W-NW 5,3 C 16,7 C 9,9 km/h (2 Bft)
11.04.2016 15:00 17,2 C 43 % 1009,7 hPa 0,0 l/m 5,2 km/h (1 Bft) W-NW 4,7 C 17,0 C 10,4 km/h (2 Bft)
11.04.2016 16:00 17,7 C 40 % 1009,5 hPa 0,0 l/m 3,5 km/h (1 Bft) NW 4,0 C 17,7 C 9,4 km/h (2 Bft)
11.04.2016 17:00 16,0 C 46 % 1009,9 hPa 0,0 l/m 3,5 km/h (1 Bft) N-NW 4,3 C 15,8 C 7,1 km/h (2 Bft)
11.04.2016 18:00 12,3 C 70 % 1009,8 hPa 0,8 l/m 2,6 km/h (1 Bft) O-NO 7,0 C 12,4 C 4,7 km/h (1 Bft)
11.04.2016 19:00 10,7 C 80 % 1010,5 hPa 0,0 l/m 1,2 km/h (1 Bft) O 7,4 C 10,7 C 2,7 km/h (1 Bft)
11.04.2016 20:00 10,1 C 83 % 1010,9 hPa 0,0 l/m 1,5 km/h (1 Bft) O-NO 7,4 C 10,1 C 3,3 km/h (1 Bft)
11.04.2016 21:00 9,5 C 86 % 1010,8 hPa 0,0 l/m 1,4 km/h (1 Bft) O 7,3 C 9,5 C 2,9 km/h (1 Bft)
11.04.2016 22:00 7,9 C 91 % 1011,3 hPa 0,0 l/m 1,1 km/h (1 Bft) O 6,5 C 7,9 C 3,5 km/h (1 Bft)
11.04.2016 23:00 8,3 C 90 % 1011,1 hPa 0,0 l/m 1,5 km/h (1 Bft) SO 6,7 C 8,3 C 3,8 km/h (1 Bft)
12.04.2016 00:00 7,4 C 91 % 1011,2 hPa 0,0 l/m 0,4 km/h (0 Bft) SO 6,1 C 7,4 C 1,5 km/h (1 Bft)
12.04.2016 01:00 6,7 C 94 % 1011,2 hPa 0,0 l/m 0,5 km/h (0 Bft) SO 5,8 C 6,7 C 1,9 km/h (1 Bft)
12.04.2016 02:00 7,1 C 95 % 1011,0 hPa 0,5 l/m 1,0 km/h (0 Bft) SO 6,4 C 7,1 C 2,8 km/h (1 Bft)
12.04.2016 03:00 7,2 C 96 % 1010,6 hPa 0,3 l/m 0,7 km/h (0 Bft) S-SO 6,6 C 7,2 C 2,4 km/h (1 Bft)
12.04.2016 04:00 7,5 C 95 % 1011,2 hPa 1,3 l/m 1,3 km/h (1 Bft) S-SW 6,8 C 7,5 C 4,3 km/h (1 Bft)
12.04.2016 05:00 7,6 C 95 % 1011,8 hPa 1,8 l/m 2,0 km/h (1 Bft) O 6,8 C 7,6 C 4,9 km/h (1 Bft)
12.04.2016 06:00 7,3 C 95 % 1011,8 hPa 0,0 l/m 2,0 km/h (1 Bft) NO 6,5 C 7,3 C 3,7 km/h (1 Bft)
12.04.2016 07:00 6,9 C 96 % 1011,5 hPa 0,0 l/m 0,1 km/h (0 Bft) NO 6,2 C 6,9 C 1,1 km/h (0 Bft)
12.04.2016 08:00 7,4 C 96 % 1011,6 hPa 0,0 l/m 0,7 km/h (0 Bft) O 6,8 C 7,4 C 2,2 km/h (1 Bft)
12.04.2016 09:00 8,7 C 93 % 1011,7 hPa 0,0 l/m 1,5 km/h (1 Bft) O 7,6 C 8,7 C 3,7 km/h (1 Bft)
12.04.2016 10:00 11,4 C 81 % 1011,5 hPa 0,0 l/m 3,3 km/h (1 Bft) NO 8,2 C 11,4 C 7,6 km/h (2 Bft)
12.04.2016 11:00 13,1 C 68 % 1011,5 hPa 0,0 l/m 4,5 km/h (1 Bft) NO 7,3 C 13,1 C 10,1 km/h (2 Bft)
12.04.2016 12:00 13,8 C 60 % 1011,3 hPa 0,3 l/m 3,7 km/h (1 Bft) O-NO 6,1 C 13,8 C 7,5 km/h (2 Bft)
12.04.2016 13:00 14,4 C 61 % 1010,8 hPa 0,0 l/m 4,3 km/h (1 Bft) NO 6,9 C 14,4 C 10,5 km/h (2 Bft)
12.04.2016 14:00 15,2 C 59 % 1010,3 hPa 0,0 l/m 4,8 km/h (1 Bft) O-NO 7,1 C 15,2 C 11,4 km/h (2 Bft)
12.04.2016 15:00 16,0 C 54 % 1010,0 hPa 0,0 l/m 4,5 km/h (1 Bft) O-NO 6,6 C 15,9 C 11,1 km/h (2 Bft)
12.04.2016 16:00 16,4 C 53 % 1009,2 hPa 0,0 l/m 3,3 km/h (1 Bft) NO 6,9 C 16,4 C 8,2 km/h (2 Bft)
12.04.2016 17:00 13,0 C 77 % 1008,8 hPa 3,3 l/m 2,2 km/h (1 Bft) NO 9,0 C 13,0 C 6,4 km/h (2 Bft)
12.04.2016 18:00 12,0 C 91 % 1008,3 hPa 0,0 l/m 1,1 km/h (1 Bft) O 10,6 C 12,0 C 2,6 km/h (1 Bft)
12.04.2016 19:00 11,9 C 77 % 1008,1 hPa 0,0 l/m 3,3 km/h (1 Bft) O-NO 7,9 C 11,9 C 10,9 km/h (2 Bft)
12.04.2016 20:00 11,3 C 72 % 1008,7 hPa 0,0 l/m 1,5 km/h (1 Bft) O 6,4 C 11,3 C 4,7 km/h (1 Bft)
12.04.2016 21:00 10,0 C 85 % 1009,4 hPa 2,3 l/m 0,9 km/h (0 Bft) O 7,5 C 10,0 C 3,0 km/h (1 Bft)
12.04.2016 22:00 8,9 C 90 % 1010,0 hPa 2,0 l/m 1,4 km/h (1 Bft) S-SO 7,4 C 8,9 C 4,1 km/h (1 Bft)
12.04.2016 23:00 8,1 C 92 % 1010,8 hPa 2,0 l/m 0,9 km/h (0 Bft) O 6,9 C 8,1 C 3,3 km/h (1 Bft)
13.04.2016 00:00 7,5 C 94 % 1010,5 hPa 0,0 l/m 0,3 km/h (0 Bft) N 6,5 C 7,5 C 1,4 km/h (1 Bft)
13.04.2016 01:00 7,0 C 95 % 1010,2 hPa 0,0 l/m 0,9 km/h (0 Bft) O 6,2 C 7,0 C 3,2 km/h (1 Bft)
13.04.2016 02:00 6,7 C 95 % 1009,5 hPa 0,0 l/m 0,6 km/h (0 Bft) O 5,9 C 6,7 C 1,7 km/h (1 Bft)
13.04.2016 03:00 6,1 C 95 % 1009,1 hPa 0,0 l/m 0,1 km/h (0 Bft) O 5,4 C 6,1 C 0,5 km/h (0 Bft)
13.04.2016 04:00 5,6 C 96 % 1008,8 hPa 0,0 l/m 0,1 km/h (0 Bft) O 5,0 C 5,6 C 0,9 km/h (0 Bft)
13.04.2016 05:00 5,8 C 97 % 1008,6 hPa 0,0 l/m 0,2 km/h (0 Bft) O 5,3 C 5,8 C 1,2 km/h (1 Bft)
13.04.2016 06:00 6,2 C 97 % 1008,1 hPa 0,0 l/m 0,8 km/h (0 Bft) O 5,7 C 6,2 C 2,6 km/h (1 Bft)
13.04.2016 07:00 6,4 C 96 % 1007,8 hPa 0,0 l/m 0,1 km/h (0 Bft) O 5,8 C 6,4 C 0,9 km/h (0 Bft)
13.04.2016 08:00 7,3 C 97 % 1007,2 hPa 0,0 l/m 0,1 km/h (0 Bft) O 6,8 C 7,3 C 0,6 km/h (0 Bft)
13.04.2016 09:00 8,3 C 96 % 1007,0 hPa 0,3 l/m 0,6 km/h (0 Bft) O 7,7 C 8,3 C 2,3 km/h (1 Bft)
13.04.2016 10:00 8,7 C 94 % 1007,2 hPa 1,0 l/m 4,0 km/h (1 Bft) O 7,7 C 8,7 C 9,4 km/h (2 Bft)
13.04.2016 11:00 7,9 C 93 % 1007,5 hPa 1,5 l/m 4,8 km/h (1 Bft) O-NO 6,8 C 7,9 C 11,0 km/h (2 Bft)
13.04.2016 12:00 7,7 C 94 % 1007,8 hPa 2,5 l/m 4,0 km/h (1 Bft) O-NO 6,7 C 7,7 C 8,1 km/h (2 Bft)
13.04.2016 13:00 8,9 C 92 % 1007,6 hPa 1,0 l/m 4,6 km/h (1 Bft) O 7,8 C 8,9 C 11,5 km/h (2 Bft)
13.04.2016 14:00 9,8 C 89 % 1007,6 hPa 0,0 l/m 5,3 km/h (1 Bft) O-NO 8,1 C 9,7 C 11,9 km/h (2 Bft)
13.04.2016 15:00 10,2 C 87 % 1007,5 hPa 0,0 l/m 4,5 km/h (1 Bft) NO 8,0 C 10,2 C 9,8 km/h (2 Bft)
13.04.2016 16:00 11,7 C 81 % 1007,4 hPa 0,0 l/m 4,5 km/h (1 Bft) O-NO 8,6 C 11,7 C 11,8 km/h (2 Bft)
13.04.2016 17:00 10,9 C 81 % 1007,7 hPa 0,0 l/m 3,3 km/h (1 Bft) O 7,7 C 10,9 C 7,6 km/h (2 Bft)
13.04.2016 18:00 10,1 C 86 % 1007,8 hPa 0,3 l/m 2,0 km/h (1 Bft) O 7,9 C 10,1 C 3,8 km/h (1 Bft)
13.04.2016 19:00 9,7 C 91 % 1008,0 hPa 0,5 l/m 1,8 km/h (1 Bft) O 8,2 C 9,7 C 4,8 km/h (1 Bft)
13.04.2016 20:00 8,0 C 92 % 1008,6 hPa 0,0 l/m 0,7 km/h (0 Bft) O-SO 6,8 C 8,0 C 2,5 km/h (1 Bft)
13.04.2016 21:00 7,3 C 94 % 1009,1 hPa 0,0 l/m 0,5 km/h (0 Bft) O 6,4 C 7,3 C 1,6 km/h (1 Bft)
13.04.2016 22:00 6,6 C 95 % 1009,7 hPa 0,0 l/m 0,2 km/h (0 Bft) O 5,9 C 6,6 C 1,2 km/h (1 Bft)
13.04.2016 23:00 6,5 C 97 % 1010,0 hPa 0,3 l/m 0,4 km/h (0 Bft) O 6,0 C 6,5 C 1,5 km/h (1 Bft)
14.04.2016 00:00 6,8 C 97 % 1010,1 hPa 0,5 l/m 2,0 km/h (1 Bft) O 6,4 C 6,8 C 4,3 km/h (1 Bft)
14.04.2016 01:00 6,9 C 95 % 1010,3 hPa 0,0 l/m 2,2 km/h (1 Bft) O 6,1 C 6,9 C 5,3 km/h (1 Bft)
14.04.2016 02:00 6,8 C 95 % 1010,5 hPa 0,3 l/m 1,5 km/h (1 Bft) O 6,1 C 6,8 C 3,8 km/h (1 Bft)
14.04.2016 03:00 6,7 C 95 % 1010,8 hPa 0,3 l/m 0,9 km/h (0 Bft) O 6,0 C 6,7 C 2,9 km/h (1 Bft)
14.04.2016 04:00 6,4 C 96 % 1011,2 hPa 0,0 l/m 0,9 km/h (0 Bft) O 5,8 C 6,4 C 3,2 km/h (1 Bft)
14.04.2016 05:00 6,3 C 96 % 1011,4 hPa 0,0 l/m 0,4 km/h (0 Bft) O-NO 5,8 C 6,3 C 2,0 km/h (1 Bft)
14.04.2016 06:00 6,4 C 97 % 1011,6 hPa 0,0 l/m 0,4 km/h (0 Bft) O-NO 5,9 C 6,4 C 1,6 km/h (1 Bft)
14.04.2016 07:00 6,5 C 96 % 1012,2 hPa 0,0 l/m 0,1 km/h (0 Bft) O-NO 5,9 C 6,5 C 1,3 km/h (1 Bft)
14.04.2016 08:00 7,0 C 95 % 1012,9 hPa 0,0 l/m 2,1 km/h (1 Bft) O 6,2 C 7,0 C 4,7 km/h (1 Bft)
14.04.2016 09:00 7,2 C 94 % 1013,3 hPa 0,0 l/m 2,2 km/h (1 Bft) O 6,3 C 7,2 C 4,5 km/h (1 Bft)
14.04.2016 10:00 7,3 C 95 % 1013,9 hPa 0,5 l/m 1,0 km/h (0 Bft) S 6,5 C 7,3 C 3,2 km/h (1 Bft)
14.04.2016 11:00 9,5 C 88 % 1013,9 hPa 0,0 l/m 2,8 km/h (1 Bft) O 7,5 C 9,5 C 6,6 km/h (2 Bft)
14.04.2016 12:00 10,1 C 83 % 1013,8 hPa 0,0 l/m 4,1 km/h (1 Bft) O 7,4 C 10,1 C 8,8 km/h (2 Bft)
14.04.2016 13:00 10,6 C 79 % 1013,6 hPa 0,0 l/m 4,6 km/h (1 Bft) O-NO 7,1 C 10,4 C 11,3 km/h (2 Bft)
14.04.2016 14:00 12,5 C 67 % 1013,3 hPa 0,0 l/m 4,9 km/h (1 Bft) O 6,6 C 12,5 C 12,4 km/h (2 Bft)
14.04.2016 15:00 12,2 C 67 % 1013,2 hPa 0,0 l/m 4,2 km/h (1 Bft) O-NO 6,2 C 12,1 C 9,5 km/h (2 Bft)
14.04.2016 16:00 14,1 C 58 % 1012,5 hPa 0,0 l/m 4,3 km/h (1 Bft) O 6,0 C 14,1 C 10,8 km/h (2 Bft)
14.04.2016 17:00 13,4 C 61 % 1012,5 hPa 0,0 l/m 3,1 km/h (1 Bft) O 6,0 C 13,4 C 7,0 km/h (2 Bft)
14.04.2016 18:00 12,9 C 63 % 1012,6 hPa 0,0 l/m 2,4 km/h (1 Bft) O 5,9 C 12,9 C 5,6 km/h (2 Bft)
14.04.2016 19:00 11,6 C 70 % 1012,2 hPa 0,0 l/m 0,4 km/h (0 Bft) S 6,3 C 11,6 C 1,7 km/h (1 Bft)
14.04.2016 20:00 8,4 C 86 % 1012,0 hPa 0,0 l/m 0,4 km/h (0 Bft) S 6,2 C 8,4 C 1,6 km/h (1 Bft)
14.04.2016 21:00 7,0 C 89 % 1012,0 hPa 0,0 l/m 0,1 km/h (0 Bft) S 5,4 C 7,0 C 1,0 km/h (0 Bft)
14.04.2016 22:00 5,9 C 92 % 1011,7 hPa 0,0 l/m 0,1 km/h (0 Bft) S 4,7 C 5,9 C 0,3 km/h (0 Bft)
14.04.2016 23:00 5,2 C 93 % 1011,2 hPa 0,0 l/m 0,0 km/h (0 Bft) S 4,2 C 5,2 C 0,3 km/h (0 Bft)
15.04.2016 00:00 4,6 C 94 % 1011,0 hPa 0,0 l/m 0,0 km/h (0 Bft) S 3,7 C 4,6 C 0,0 km/h (0 Bft)
15.04.2016 01:00 3,9 C 95 % 1010,7 hPa 0,0 l/m 0,0 km/h (0 Bft) S 3,2 C 3,9 C 0,3 km/h (0 Bft)
15.04.2016 02:00 4,6 C 96 % 1009,9 hPa 0,0 l/m 0,4 km/h (0 Bft) NO 4,0 C 4,6 C 1,5 km/h (1 Bft)
15.04.2016 03:00 4,9 C 95 % 1009,5 hPa 0,0 l/m 0,3 km/h (0 Bft) NO 4,2 C 4,9 C 1,3 km/h (1 Bft)
15.04.2016 04:00 6,7 C 92 % 1008,8 hPa 0,0 l/m 2,3 km/h (1 Bft) O 5,4 C 6,7 C 5,5 km/h (2 Bft)
15.04.2016 05:00 7,6 C 87 % 1007,9 hPa 0,0 l/m 0,9 km/h (0 Bft) O 5,5 C 7,6 C 3,7 km/h (1 Bft)
15.04.2016 06:00 6,9 C 91 % 1007,8 hPa 0,3 l/m 0,4 km/h (0 Bft) O 5,6 C 6,9 C 1,4 km/h (1 Bft)
15.04.2016 07:00 6,9 C 95 % 1008,3 hPa 1,5 l/m 0,6 km/h (0 Bft) O 6,1 C 6,9 C 2,8 km/h (1 Bft)
15.04.2016 08:00 7,1 C 95 % 1008,9 hPa 2,0 l/m 1,8 km/h (1 Bft) NO 6,3 C 7,1 C 4,5 km/h (1 Bft)
15.04.2016 09:00 6,9 C 95 % 1009,1 hPa 1,5 l/m 2,1 km/h (1 Bft) O-NO 6,1 C 6,9 C 4,4 km/h (1 Bft)
15.04.2016 10:00 7,1 C 93 % 1009,6 hPa 0,5 l/m 1,9 km/h (1 Bft) O-SO 6,2 C 7,1 C 5,2 km/h (1 Bft)
15.04.2016 11:00 7,4 C 93 % 1009,6 hPa 0,0 l/m 5,5 km/h (2 Bft) O-NO 6,3 C 7,1 C 11,1 km/h (2 Bft)
15.04.2016 12:00 7,7 C 92 % 1009,7 hPa 0,0 l/m 5,0 km/h (1 Bft) O-NO 6,5 C 7,6 C 10,1 km/h (2 Bft)
15.04.2016 13:00 9,4 C 88 % 1009,4 hPa 0,0 l/m 6,4 km/h (2 Bft) O-NO 7,4 C 9,1 C 14,4 km/h (3 Bft)
15.04.2016 14:00 11,2 C 79 % 1009,0 hPa 0,0 l/m 7,3 km/h (2 Bft) NO 7,6 C 10,6 C 17,6 km/h (3 Bft)
15.04.2016 15:00 12,1 C 73 % 1008,7 hPa 0,0 l/m 7,1 km/h (2 Bft) O-NO 7,5 C 11,3 C 16,7 km/h (3 Bft)
15.04.2016 16:00 12,1 C 70 % 1008,2 hPa 0,0 l/m 6,8 km/h (2 Bft) O-NO 6,8 C 11,5 C 16,8 km/h (3 Bft)
15.04.2016 17:00 11,4 C 72 % 1007,9 hPa 0,0 l/m 5,9 km/h (2 Bft) NO 6,5 C 11,2 C 14,6 km/h (3 Bft)
15.04.2016 18:00 11,0 C 73 % 1007,7 hPa 0,0 l/m 5,1 km/h (1 Bft) O-NO 6,4 C 10,7 C 9,5 km/h (2 Bft)
15.04.2016 19:00 10,3 C 78 % 1007,2 hPa 0,0 l/m 1,9 km/h (1 Bft) O-SO 6,6 C 10,3 C 5,1 km/h (1 Bft)
15.04.2016 20:00 9,2 C 86 % 1007,0 hPa 0,0 l/m 0,6 km/h (0 Bft) O-SO 7,0 C 9,2 C 1,9 km/h (1 Bft)
15.04.2016 21:00 8,7 C 90 % 1007,3 hPa 0,8 l/m 1,1 km/h (1 Bft) O-SO 7,1 C 8,7 C 2,9 km/h (1 Bft)
15.04.2016 22:00 8,2 C 92 % 1007,4 hPa 0,8 l/m 2,4 km/h (1 Bft) O-NO 7,1 C 8,2 C 4,9 km/h (1 Bft)
15.04.2016 23:00 8,1 C 94 % 1007,3 hPa 2,0 l/m 2,1 km/h (1 Bft) O-NO 7,2 C 8,1 C 4,0 km/h (1 Bft)
16.04.2016 00:00 7,9 C 95 % 1006,9 hPa 1,0 l/m 1,4 km/h (1 Bft) O-NO 7,2 C 7,9 C 2,9 km/h (1 Bft)
16.04.2016 01:00 7,9 C 96 % 1006,5 hPa 1,5 l/m 1,4 km/h (1 Bft) O 7,3 C 7,9 C 3,3 km/h (1 Bft)
16.04.2016 02:00 8,0 C 96 % 1005,8 hPa 2,3 l/m 0,8 km/h (0 Bft) O 7,5 C 8,0 C 1,9 km/h (1 Bft)
16.04.2016 03:00 8,2 C 96 % 1004,9 hPa 1,0 l/m 2,6 km/h (1 Bft) O 7,7 C 8,2 C 6,0 km/h (2 Bft)
16.04.2016 04:00 8,3 C 96 % 1004,1 hPa 0,5 l/m 2,4 km/h (1 Bft) NO 7,6 C 8,3 C 6,0 km/h (2 Bft)
16.04.2016 05:00 8,7 C 92 % 1003,5 hPa 0,0 l/m 7,3 km/h (2 Bft) NO 7,4 C 7,3 C 15,3 km/h (3 Bft)
16.04.2016 06:00 9,0 C 88 % 1003,3 hPa 0,5 l/m 10,5 km/h (2 Bft) O-NO 7,1 C 6,3 C 19,9 km/h (4 Bft)
16.04.2016 07:00 8,7 C 90 % 1003,6 hPa 1,0 l/m 10,4 km/h (2 Bft) O 7,1 C 6,0 C 24,4 km/h (4 Bft)
16.04.2016 08:00 8,3 C 91 % 1004,6 hPa 1,3 l/m 9,8 km/h (2 Bft) O-NO 7,0 C 5,9 C 22,7 km/h (4 Bft)
16.04.2016 09:00 8,3 C 92 % 1004,6 hPa 0,0 l/m 6,1 km/h (2 Bft) O-NO 7,1 C 7,8 C 12,2 km/h (2 Bft)
16.04.2016 10:00 9,2 C 88 % 1004,9 hPa 0,0 l/m 6,6 km/h (2 Bft) O-NO 7,3 C 8,7 C 16,2 km/h (3 Bft)
16.04.2016 11:00 9,8 C 87 % 1005,3 hPa 0,0 l/m 4,6 km/h (1 Bft) O-NO 7,8 C 9,8 C 11,6 km/h (2 Bft)
16.04.2016 12:00 10,1 C 89 % 1005,4 hPa 0,0 l/m 4,0 km/h (1 Bft) NO 8,4 C 10,1 C 9,4 km/h (2 Bft)
16.04.2016 13:00 9,5 C 90 % 1006,0 hPa 2,8 l/m 3,4 km/h (1 Bft) O 7,9 C 9,5 C 9,8 km/h (2 Bft)
16.04.2016 14:00 8,9 C 93 % 1006,7 hPa 0,5 l/m 4,0 km/h (1 Bft) O-NO 7,8 C 8,9 C 8,8 km/h (2 Bft)
16.04.2016 15:00 9,7 C 93 % 1006,7 hPa 0,0 l/m 4,7 km/h (1 Bft) NO 8,6 C 9,5 C 8,2 km/h (2 Bft)
16.04.2016 16:00 9,7 C 92 % 1006,5 hPa 0,3 l/m 3,6 km/h (1 Bft) O-NO 8,5 C 9,7 C 6,2 km/h (2 Bft)
16.04.2016 17:00 10,4 C 92 % 1006,0 hPa 0,3 l/m 2,6 km/h (1 Bft) NO 9,1 C 10,4 C 4,5 km/h (1 Bft)
16.04.2016 18:00 10,5 C 91 % 1005,8 hPa 0,5 l/m 3,4 km/h (1 Bft) NO 9,1 C 10,5 C 7,7 km/h (2 Bft)
16.04.2016 19:00 9,6 C 94 % 1005,8 hPa 0,5 l/m 1,4 km/h (1 Bft) N-NO 8,6 C 9,6 C 3,6 km/h (1 Bft)
16.04.2016 20:00 8,4 C 95 % 1005,1 hPa 0,0 l/m 0,2 km/h (0 Bft) N-NO 7,6 C 8,4 C 1,3 km/h (1 Bft)
16.04.2016 21:00 7,5 C 95 % 1004,9 hPa 0,0 l/m 0,1 km/h (0 Bft) SO 6,8 C 7,5 C 0,8 km/h (0 Bft)
16.04.2016 22:00 7,3 C 97 % 1004,9 hPa 3,0 l/m 0,8 km/h (0 Bft) SO 6,8 C 7,3 C 2,8 km/h (1 Bft)
16.04.2016 23:00 7,8 C 97 % 1004,5 hPa 3,8 l/m 0,7 km/h (0 Bft) W 7,4 C 7,8 C 2,3 km/h (1 Bft)
17.04.2016 00:00 7,9 C 98 % 1004,8 hPa 3,3 l/m 0,8 km/h (0 Bft) O-NO 7,6 C 7,9 C 2,5 km/h (1 Bft)
17.04.2016 01:00 8,1 C 97 % 1005,0 hPa 3,0 l/m 1,5 km/h (1 Bft) O-NO 7,7 C 8,1 C 3,7 km/h (1 Bft)
17.04.2016 02:00 8,0 C 96 % 1004,4 hPa 1,5 l/m 2,0 km/h (1 Bft) O-NO 7,5 C 8,0 C 4,4 km/h (1 Bft)
17.04.2016 03:00 7,9 C 96 % 1004,3 hPa 1,8 l/m 3,3 km/h (1 Bft) O-NO 7,3 C 7,9 C 7,8 km/h (2 Bft)
17.04.2016 04:00 7,8 C 95 % 1004,5 hPa 0,5 l/m 4,6 km/h (1 Bft) NO 7,1 C 7,6 C 11,3 km/h (2 Bft)
17.04.2016 05:00 7,8 C 95 % 1004,7 hPa 1,0 l/m 5,6 km/h (2 Bft) O-NO 7,0 C 7,6 C 12,9 km/h (3 Bft)
17.04.2016 06:00 7,7 C 95 % 1004,9 hPa 1,8 l/m 3,1 km/h (1 Bft) O 7,0 C 7,7 C 6,4 km/h (2 Bft)
17.04.2016 07:00 6,8 C 95 % 1005,6 hPa 1,3 l/m 0,7 km/h (0 Bft) SO 6,0 C 6,8 C 2,9 km/h (1 Bft)
17.04.2016 08:00 6,1 C 95 % 1006,8 hPa 1,5 l/m 1,7 km/h (1 Bft) O-NO 5,4 C 6,1 C 3,9 km/h (1 Bft)
17.04.2016 09:00 6,1 C 95 % 1007,7 hPa 0,3 l/m 2,1 km/h (1 Bft) O-SO 5,3 C 6,1 C 4,7 km/h (1 Bft)
17.04.2016 10:00 5,5 C 93 % 1009,1 hPa 0,8 l/m 1,7 km/h (1 Bft) O 4,5 C 5,5 C 4,5 km/h (1 Bft)
17.04.2016 11:00 5,3 C 94 % 1010,3 hPa 0,5 l/m 2,3 km/h (1 Bft) O 4,4 C 5,3 C 5,1 km/h (1 Bft)
17.04.2016 12:00 5,4 C 94 % 1010,9 hPa 0,3 l/m 2,7 km/h (1 Bft) O-NO 4,4 C 5,4 C 5,3 km/h (1 Bft)
17.04.2016 13:00 7,0 C 90 % 1010,9 hPa 0,0 l/m 3,1 km/h (1 Bft) O-NO 5,6 C 7,0 C 7,1 km/h (2 Bft)
17.04.2016 14:00 8,3 C 84 % 1011,1 hPa 0,0 l/m 2,4 km/h (1 Bft) W-NW 5,6 C 8,3 C 5,5 km/h (2 Bft)
17.04.2016 15:00 7,6 C 87 % 1011,2 hPa 0,0 l/m 2,1 km/h (1 Bft) O 5,6 C 7,6 C 4,2 km/h (1 Bft)
17.04.2016 16:00 7,1 C 89 % 1011,6 hPa 0,8 l/m 1,1 km/h (1 Bft) S 5,4 C 7,1 C 3,2 km/h (1 Bft)
17.04.2016 17:00 6,4 C 93 % 1012,6 hPa 1,8 l/m 0,4 km/h (0 Bft) O-NO 5,3 C 6,4 C 2,0 km/h (1 Bft)
17.04.2016 18:00 6,0 C 94 % 1013,1 hPa 0,5 l/m 0,4 km/h (0 Bft) O-NO 5,0 C 6,0 C 1,6 km/h (1 Bft)
17.04.2016 19:00 5,2 C 95 % 1013,7 hPa 1,0 l/m 1,1 km/h (0 Bft) W-SW 4,4 C 5,2 C 3,3 km/h (1 Bft)
17.04.2016 20:00 4,5 C 95 % 1015,1 hPa 0,3 l/m 0,3 km/h (0 Bft) W-NW 3,8 C 4,5 C 1,8 km/h (1 Bft)
17.04.2016 21:00 4,2 C 95 % 1015,9 hPa 0,0 l/m 0,1 km/h (0 Bft) W-NW 3,6 C 4,2 C 0,6 km/h (0 Bft)
17.04.2016 22:00 4,2 C 96 % 1016,4 hPa 0,0 l/m 0,2 km/h (0 Bft) W-NW 3,6 C 4,2 C 1,3 km/h (1 Bft)
17.04.2016 23:00 4,0 C 96 % 1016,7 hPa 0,0 l/m 0,2 km/h (0 Bft) W-NW 3,5 C 4,0 C 1,0 km/h (0 Bft)
Min-Datum _ 11.04.16 11.04.16 16.04.16 - 17.04.16 - 11.04.16 11.04.16 17.04.16
_ Min-Zeit 07:10 16:20 07:00 - 23:05 - 06:35 07:10 23:05
Minimum _ -1,0 C 38 % 1003,1 hPa - 0,0 km/h (0 Bft) - -1,7 C -1,0 C 0,0 km/h (0 Bft)
Max-Datum _ 11.04.16 17.04.16 17.04.16 16.04.16 16.04.16 - 12.04.16 11.04.16 16.04.16
_ Max-Zeit 16:05 00:01 23:00 23:20 05:57 - 18:40 16:05 08:30
Maximum _ 18,0 C 98 % 1016,8 hPa 3,8 l/m 16,1 km/h
NO (3 Bft)
- 11,2 C 18,0 C 35,4 km/h
O-NO (5 Bft)
Durchschnitt _ 8,4 C 87 % 1009,4 hPa #75,4 l/m 2,3 km/h (1 Bft) O 6,1 C 8,3 C 5,6 km/h (2 Bft)